createdAt,value
2022-10-20T00:02:19.437Z,1.00
2022-10-20T00:04:46.102Z,0.98
2022-10-20T00:07:12.423Z,0.77
2022-10-20T00:09:38.647Z,1.00
2022-10-20T00:12:05.283Z,1.20
2022-10-20T00:14:31.534Z,0.90
2022-10-20T00:16:59.868Z,0.80
2022-10-20T00:19:26.096Z,1.17
2022-10-20T00:21:52.397Z,1.20
2022-10-20T00:24:21.438Z,1.30
2022-10-20T00:26:47.804Z,0.93
2022-10-20T00:29:14.115Z,0.70
2022-10-20T00:31:40.380Z,1.48
2022-10-20T00:34:06.603Z,1.00
2022-10-20T00:36:32.831Z,1.00
2022-10-20T00:39:00.248Z,1.27
2022-10-20T00:41:27.173Z,1.08
2022-10-20T00:43:54.720Z,1.10
2022-10-20T00:46:22.849Z,1.02
2022-10-20T00:48:51.692Z,1.20
2022-10-20T00:51:19.728Z,1.17
2022-10-20T00:53:46.211Z,0.85
2022-10-20T00:56:12.701Z,0.95
2022-10-20T00:58:39.192Z,0.98
2022-10-20T01:01:05.487Z,0.90
2022-10-20T01:03:35.478Z,1.08
2022-10-20T01:06:01.730Z,1.20
2022-10-20T01:08:28.017Z,0.80
2022-10-20T01:11:12.719Z,0.90
2022-10-20T01:13:38.928Z,1.20
2022-10-20T01:16:23.537Z,0.90
2022-10-20T01:18:58.748Z,1.10
2022-10-20T01:21:35.315Z,1.00
2022-10-20T01:24:11.587Z,1.30
2022-10-20T01:26:57.658Z,0.80
2022-10-20T01:29:37.304Z,0.85
2022-10-20T01:32:22.355Z,1.13
2022-10-20T01:34:54.520Z,0.88
2022-10-20T01:37:34.303Z,0.90
2022-10-20T01:40:18.596Z,0.90
2022-10-20T01:42:47.188Z,1.05
2022-10-20T01:45:14.573Z,0.80
2022-10-20T01:47:42.420Z,1.00
2022-10-20T01:50:10.166Z,1.10
2022-10-20T01:52:36.899Z,1.02
2022-10-20T01:55:10.625Z,0.80
2022-10-20T01:57:44.740Z,1.02
2022-10-20T02:00:12.428Z,0.98
2022-10-20T02:02:56.959Z,1.00
2022-10-20T02:05:26.141Z,0.90
2022-10-20T02:07:54.944Z,1.17
2022-10-20T02:10:23.122Z,1.00
2022-10-20T02:12:51.934Z,1.00
2022-10-20T02:15:20.427Z,1.17
2022-10-20T02:17:49.121Z,0.90
2022-10-20T02:20:15.894Z,0.90
2022-10-20T02:22:42.202Z,0.93
2022-10-20T02:25:12.060Z,1.23
2022-10-20T02:27:40.118Z,0.98
2022-10-20T02:30:08.667Z,1.20
2022-10-20T02:32:36.505Z,1.08
2022-10-20T02:35:06.656Z,1.10
2022-10-20T02:37:33.842Z,1.00
2022-10-20T02:40:00.306Z,0.70
2022-10-20T02:42:26.608Z,0.70
2022-10-20T02:44:53.172Z,0.90
2022-10-20T02:47:21.005Z,1.20
2022-10-20T02:49:47.250Z,1.10
2022-10-20T02:52:13.532Z,1.10
2022-10-20T02:54:40.209Z,1.20
2022-10-20T02:57:06.451Z,1.23
2022-10-20T02:59:33.365Z,1.23
2022-10-20T03:01:59.676Z,0.98
2022-10-20T03:06:57.165Z,1.10
2022-10-20T03:09:23.415Z,1.00
2022-10-20T03:11:49.634Z,1.00
2022-10-20T03:14:15.863Z,1.05
2022-10-20T03:16:42.162Z,1.25
2022-10-20T03:19:11.528Z,0.70
2022-10-20T03:21:38.125Z,1.00
2022-10-20T03:24:04.608Z,0.98
2022-10-20T03:26:30.835Z,1.10
2022-10-20T03:28:57.080Z,1.10
2022-10-20T03:31:23.368Z,1.20
2022-10-20T03:33:49.883Z,1.30
2022-10-20T03:36:16.135Z,1.70
2022-10-20T03:38:45.562Z,1.10
2022-10-20T03:41:11.841Z,1.50
2022-10-20T03:43:41.038Z,0.90
2022-10-20T03:46:08.445Z,1.20
2022-10-20T03:48:34.868Z,1.20
2022-10-20T03:51:01.665Z,1.15
2022-10-20T03:53:28.254Z,0.82
2022-10-20T03:55:54.532Z,1.20
2022-10-20T03:58:21.134Z,1.02
2022-10-20T04:00:47.818Z,1.05
2022-10-20T04:03:14.112Z,1.00
2022-10-20T04:05:40.603Z,1.00
2022-10-20T04:08:07.154Z,1.13
2022-10-20T04:10:33.495Z,1.10
2022-10-20T04:13:00.640Z,1.13
2022-10-20T04:15:27.031Z,0.95
2022-10-20T04:17:53.323Z,1.10
2022-10-20T04:20:22.827Z,1.20
2022-10-20T04:22:49.073Z,1.13
2022-10-20T04:25:15.486Z,0.90
2022-10-20T04:27:42.223Z,1.10
2022-10-20T04:30:08.803Z,1.02
2022-10-20T04:32:35.226Z,1.20
2022-10-20T04:35:01.555Z,1.30
2022-10-20T04:37:27.851Z,1.20
2022-10-20T04:39:54.452Z,1.20
2022-10-20T04:42:20.695Z,1.10
2022-10-20T04:44:46.982Z,1.10
2022-10-20T04:47:13.301Z,1.15
2022-10-20T04:49:40.222Z,1.20
2022-10-20T04:52:06.556Z,1.23
2022-10-20T04:54:32.776Z,1.27
2022-10-20T04:56:59.085Z,1.25
2022-10-20T04:59:25.307Z,1.40
2022-10-20T05:01:51.653Z,1.10
2022-10-20T05:04:21.865Z,1.08
2022-10-20T05:09:15.440Z,1.10
2022-10-20T05:11:42.100Z,0.98
2022-10-20T05:14:08.594Z,1.30
2022-10-20T05:16:34.929Z,1.00
2022-10-20T05:19:01.432Z,1.20
2022-10-20T05:21:28.838Z,1.20
2022-10-20T05:23:59.084Z,1.10
2022-10-20T05:28:52.005Z,1.20
2022-10-20T05:31:19.610Z,1.30
2022-10-20T05:33:47.123Z,1.45
2022-10-20T05:36:18.126Z,1.60
2022-10-20T05:38:49.994Z,1.65
2022-10-20T05:41:17.548Z,1.10
2022-10-20T05:43:47.571Z,1.70
2022-10-20T05:46:13.806Z,1.27
2022-10-20T05:48:43.101Z,1.00
2022-10-20T05:51:13.775Z,1.47
2022-10-20T05:53:41.475Z,1.40
2022-10-20T05:56:08.923Z,1.40
2022-10-20T05:58:35.273Z,1.20
2022-10-20T06:01:08.907Z,1.20
2022-10-20T06:03:35.289Z,1.00
2022-10-20T06:06:01.881Z,1.20
2022-10-20T06:08:32.321Z,1.20
2022-10-20T06:11:06.009Z,1.65
2022-10-20T06:13:32.817Z,1.20
2022-10-20T06:16:06.091Z,1.13
2022-10-20T06:18:32.928Z,1.38
2022-10-20T06:21:02.970Z,1.35
2022-10-20T06:23:29.267Z,1.33
2022-10-20T06:25:55.594Z,1.40
2022-10-20T06:28:21.927Z,1.00
2022-10-20T06:30:48.155Z,1.40
2022-10-20T06:33:16.780Z,1.50
2022-10-20T06:35:43.038Z,1.45
2022-10-20T06:38:09.817Z,1.20
2022-10-20T06:40:36.151Z,1.08
2022-10-20T06:43:02.429Z,1.67
2022-10-20T06:45:28.687Z,1.38
2022-10-20T06:47:54.902Z,1.77
2022-10-20T06:50:21.528Z,1.40
2022-10-20T06:52:47.773Z,1.10
2022-10-20T06:55:13.998Z,1.42
2022-10-20T06:57:40.277Z,1.30
2022-10-20T07:00:06.743Z,1.80
2022-10-20T07:02:33.163Z,1.60
2022-10-20T07:04:59.475Z,1.30
2022-10-20T07:07:25.806Z,1.00
2022-10-20T07:09:52.099Z,1.20
2022-10-20T07:12:18.444Z,1.10
2022-10-20T07:14:44.667Z,1.13
2022-10-20T07:17:10.973Z,1.27
2022-10-20T07:19:37.234Z,1.23
2022-10-20T07:22:03.443Z,1.70
2022-10-20T07:24:29.695Z,1.88
2022-10-20T07:26:55.956Z,1.70
2022-10-20T07:29:22.240Z,1.20
2022-10-20T07:31:48.515Z,1.38
2022-10-20T07:34:31.489Z,1.73
2022-10-20T07:36:57.973Z,1.48
2022-10-20T07:39:24.647Z,1.42
2022-10-20T07:41:50.953Z,1.40
2022-10-20T07:44:17.531Z,1.40
2022-10-20T07:46:43.918Z,1.30
2022-10-20T07:49:42.860Z,1.25
2022-10-20T07:51:56.698Z,2.38
2022-10-20T07:54:23.027Z,2.83
2022-10-20T07:56:49.567Z,3.13
2022-10-20T07:59:15.989Z,3.33
2022-10-20T08:01:42.406Z,3.20
2022-10-20T08:04:08.721Z,3.97
2022-10-20T08:06:34.964Z,3.00
2022-10-20T08:09:01.444Z,3.42
2022-10-20T08:11:27.723Z,3.58
2022-10-20T08:13:54.079Z,4.20
2022-10-20T08:16:30.693Z,3.65
2022-10-20T08:19:05.879Z,3.83
2022-10-20T08:21:32.369Z,3.67
2022-10-20T08:23:58.632Z,4.03
2022-10-20T08:26:25.746Z,3.30
2022-10-20T08:28:52.936Z,4.00
2022-10-20T08:31:19.507Z,3.50
2022-10-20T08:33:50.045Z,3.35
2022-10-20T08:36:18.572Z,3.38
2022-10-20T08:38:44.835Z,4.00
2022-10-20T08:41:16.457Z,3.72
2022-10-20T08:43:42.807Z,3.85
2022-10-20T08:48:45.927Z,4.07
2022-10-20T08:51:19.839Z,3.92
2022-10-20T08:53:46.871Z,4.22
2022-10-20T08:56:13.822Z,3.85
2022-10-20T08:58:43.981Z,3.30
2022-10-20T09:01:16.616Z,3.75
2022-10-20T09:03:42.915Z,3.55
2022-10-20T09:06:13.999Z,3.50
2022-10-20T09:08:40.422Z,3.75
2022-10-20T09:11:08.766Z,3.70
2022-10-20T09:13:36.525Z,4.32
2022-10-20T09:16:07.044Z,3.70
2022-10-20T09:18:33.706Z,4.10
2022-10-20T09:21:04.993Z,3.88
2022-10-20T09:23:40.961Z,3.90
2022-10-20T09:26:24.751Z,3.63
2022-10-20T09:29:13.037Z,2.90
2022-10-20T09:34:24.833Z,3.80
2022-10-20T09:37:11.335Z,2.95
2022-10-20T09:39:42.858Z,2.00
2022-10-20T09:42:17.197Z,1.65
2022-10-20T09:44:47.518Z,1.90
2022-10-20T09:49:39.975Z,2.30
2022-10-20T09:52:15.654Z,1.77
2022-10-20T09:54:46.008Z,2.17
2022-10-20T09:57:16.925Z,1.92
2022-10-20T09:59:45.396Z,1.70
2022-10-20T10:02:14.492Z,1.95
2022-10-20T10:04:44.731Z,1.88
2022-10-20T10:09:37.895Z,1.70
2022-10-20T10:12:13.131Z,1.90
2022-10-20T10:14:50.038Z,2.03
2022-10-20T10:17:34.752Z,1.80
2022-10-20T10:20:01.782Z,1.60
2022-10-20T10:22:28.146Z,2.05
2022-10-20T10:24:55.412Z,2.35
2022-10-20T10:27:23.621Z,2.20
2022-10-20T10:29:50.059Z,1.85
2022-10-20T10:32:23.791Z,1.83
2022-10-20T10:35:01.094Z,2.13
2022-10-20T10:37:29.713Z,1.98
2022-10-20T10:39:58.670Z,1.77
2022-10-20T10:42:24.914Z,1.90
2022-10-20T10:45:08.847Z,2.10
2022-10-20T10:47:53.122Z,1.75
2022-10-20T10:50:57.820Z,2.10
2022-10-20T10:53:31.689Z,2.10
2022-10-20T10:56:20.875Z,1.88
2022-10-20T10:58:51.223Z,1.70
2022-10-20T11:01:36.012Z,1.98
2022-10-20T11:04:22.505Z,1.75
2022-10-20T11:06:58.059Z,1.77
2022-10-20T11:09:27.619Z,2.10
2022-10-20T11:11:53.827Z,2.20
2022-10-20T11:14:27.347Z,2.15
2022-10-20T11:16:56.237Z,2.00
2022-10-20T11:19:22.435Z,1.90
2022-10-20T11:22:02.802Z,2.22
2022-10-20T11:24:34.727Z,1.90
2022-10-20T11:27:11.636Z,1.83
2022-10-20T11:29:41.454Z,2.05
2022-10-20T11:32:26.694Z,2.15
2022-10-20T11:34:58.756Z,2.20
2022-10-20T11:37:28.017Z,2.25
2022-10-20T11:40:05.927Z,2.20
2022-10-20T11:42:53.578Z,1.80
2022-10-20T11:45:42.136Z,1.77
2022-10-20T11:48:15.393Z,1.92
2022-10-20T11:50:42.603Z,1.65
2022-10-20T11:53:21.174Z,2.17
2022-10-20T11:56:08.163Z,1.80
2022-10-20T11:58:40.279Z,1.58
2022-10-20T12:01:22.632Z,1.95
2022-10-20T12:04:07.528Z,1.45
2022-10-20T12:06:43.017Z,1.63
2022-10-20T12:09:09.343Z,1.70
2022-10-20T12:11:41.610Z,1.58
2022-10-20T12:14:16.959Z,1.67
2022-10-20T12:17:05.220Z,1.40
2022-10-20T12:19:32.648Z,1.67
2022-10-20T12:22:00.862Z,1.20
2022-10-20T12:24:35.108Z,1.90
2022-10-20T12:27:10.552Z,1.83
2022-10-20T12:29:36.789Z,1.88
2022-10-20T12:32:21.755Z,1.85
2022-10-20T12:34:49.103Z,2.60
2022-10-20T12:37:24.210Z,1.90
2022-10-20T12:39:54.256Z,1.85
2022-10-20T12:42:22.071Z,1.88
2022-10-20T12:44:48.357Z,1.85
2022-10-20T12:47:19.567Z,1.65
2022-10-20T12:49:53.634Z,1.90
2022-10-20T12:52:22.194Z,2.08
2022-10-20T12:54:53.421Z,2.38
2022-10-20T12:57:26.659Z,2.17
2022-10-20T12:59:53.162Z,2.10
2022-10-20T13:02:22.393Z,1.98
2022-10-20T13:05:01.304Z,2.45
2022-10-20T13:07:46.070Z,2.08
2022-10-20T13:10:24.226Z,1.92
2022-10-20T13:12:50.483Z,2.13
2022-10-20T13:15:19.143Z,2.17
2022-10-20T13:17:52.097Z,1.75
2022-10-20T13:20:22.775Z,1.90
2022-10-20T13:22:51.128Z,2.00
2022-10-20T13:25:32.480Z,1.85
2022-10-20T13:28:02.811Z,1.63
2022-10-20T13:30:30.610Z,2.15
2022-10-20T13:33:11.626Z,1.70
2022-10-20T13:35:50.472Z,1.80
2022-10-20T13:38:20.216Z,1.83
2022-10-20T13:40:55.326Z,2.03
2022-10-20T13:43:40.257Z,6.78
2022-10-20T13:46:13.919Z,3.15
2022-10-20T13:48:46.463Z,3.65
2022-10-20T13:51:23.871Z,3.10
2022-10-20T13:53:52.483Z,2.85
2022-10-20T13:56:31.748Z,2.70
2022-10-20T13:59:05.663Z,3.20
2022-10-20T14:01:34.653Z,2.63
2022-10-20T14:04:00.946Z,2.45
2022-10-20T14:06:27.165Z,2.55
2022-10-20T14:08:58.035Z,2.88
2022-10-20T14:11:29.894Z,2.38
2022-10-20T14:13:56.837Z,2.60
2022-10-20T14:16:25.830Z,2.75
2022-10-20T14:19:01.430Z,2.30
2022-10-20T14:21:28.711Z,2.10
2022-10-20T14:23:56.908Z,2.20
2022-10-20T14:26:24.277Z,2.17
2022-10-20T14:28:51.414Z,2.50
2022-10-20T14:31:20.611Z,2.05
2022-10-20T14:33:47.946Z,2.03
2022-10-20T14:36:19.388Z,1.80
2022-10-20T14:38:52.836Z,2.10
2022-10-20T14:41:26.531Z,2.15
2022-10-20T14:43:55.546Z,2.35
2022-10-20T14:46:33.288Z,1.70
2022-10-20T14:49:00.169Z,1.60
2022-10-20T14:51:44.957Z,2.13
2022-10-20T14:54:17.114Z,2.03
2022-10-20T14:57:03.658Z,2.05
2022-10-20T14:59:31.916Z,1.90
2022-10-20T15:02:08.567Z,2.33
2022-10-20T15:04:36.395Z,1.92
2022-10-20T15:07:17.899Z,1.83
2022-10-20T15:09:49.145Z,2.10
2022-10-20T15:12:31.347Z,2.05
2022-10-20T15:15:08.012Z,1.58
2022-10-20T15:17:34.570Z,2.30
2022-10-20T15:20:19.822Z,2.05
2022-10-20T15:22:46.120Z,2.10
2022-10-20T15:25:12.312Z,1.98
2022-10-20T15:27:40.425Z,1.80
2022-10-20T15:30:15.862Z,1.67
2022-10-20T15:32:42.082Z,2.00
2022-10-20T15:35:16.660Z,1.77
2022-10-20T15:37:43.369Z,1.95
2022-10-20T15:40:09.976Z,1.73
2022-10-20T15:42:36.432Z,1.70
2022-10-20T15:45:08.864Z,2.00
2022-10-20T15:47:35.098Z,1.85
2022-10-20T15:52:32.785Z,2.20
2022-10-20T15:54:59.046Z,2.05
2022-10-20T15:57:25.290Z,2.28
2022-10-20T15:59:51.553Z,1.95
2022-10-20T16:02:17.847Z,1.75
2022-10-20T16:04:44.078Z,2.10
2022-10-20T16:07:10.360Z,2.20
2022-10-20T16:09:36.594Z,2.03
2022-10-20T16:12:02.879Z,1.95
2022-10-20T16:14:29.118Z,2.33
2022-10-20T16:16:55.418Z,1.70
2022-10-20T16:19:21.693Z,1.90
2022-10-20T16:21:48.157Z,2.15
2022-10-20T16:24:14.388Z,1.83
2022-10-20T16:26:40.805Z,2.13
2022-10-20T16:29:07.065Z,2.50
2022-10-20T16:31:33.310Z,1.95
2022-10-20T16:34:00.262Z,2.42
2022-10-20T16:36:26.572Z,2.10
2022-10-20T16:38:56.774Z,2.30
2022-10-20T16:43:49.291Z,2.15
2022-10-20T16:46:15.923Z,1.80
2022-10-20T16:48:45.146Z,2.13
2022-10-20T16:51:15.027Z,2.70
2022-10-20T16:53:41.265Z,2.70
2022-10-20T16:56:07.914Z,2.70
2022-10-20T16:58:34.401Z,3.40
2022-10-20T17:01:06.354Z,2.83
2022-10-20T17:03:32.825Z,3.05
2022-10-20T17:06:00.571Z,3.05
2022-10-20T17:08:27.947Z,3.25
2022-10-20T17:10:55.180Z,3.15
2022-10-20T17:13:21.408Z,3.35
2022-10-20T17:15:47.644Z,3.53
2022-10-20T17:18:14.183Z,2.90
2022-10-20T17:20:40.591Z,3.83
2022-10-20T17:23:06.832Z,4.25
2022-10-20T17:25:33.234Z,3.58
2022-10-20T17:28:01.336Z,3.45
2022-10-20T17:30:29.505Z,3.25
2022-10-20T17:32:55.907Z,4.35
2022-10-20T17:35:22.167Z,4.30
2022-10-20T17:37:48.394Z,4.13
2022-10-20T17:40:14.895Z,4.55
2022-10-20T17:42:41.199Z,4.65
2022-10-20T17:45:07.790Z,4.03
2022-10-20T17:47:34.178Z,4.30
2022-10-20T17:50:00.512Z,4.20
2022-10-20T17:52:29.056Z,4.60
2022-10-20T17:54:55.389Z,3.92
2022-10-20T17:57:21.671Z,5.22
2022-10-20T17:59:53.955Z,3.70
2022-10-20T18:02:23.680Z,4.68
2022-10-20T18:04:50.388Z,4.07
2022-10-20T18:07:16.677Z,4.03
2022-10-20T18:09:43.903Z,3.50
2022-10-20T18:12:10.234Z,4.10
2022-10-20T18:14:36.470Z,3.75
2022-10-20T18:17:02.804Z,4.00
2022-10-20T18:19:29.130Z,3.50
2022-10-20T18:21:55.402Z,4.03
2022-10-20T18:24:21.891Z,3.92
2022-10-20T18:26:48.279Z,3.50
2022-10-20T18:29:14.795Z,3.83
2022-10-20T18:31:42.007Z,3.78
2022-10-20T18:34:10.904Z,3.50
2022-10-20T18:36:40.390Z,3.80
2022-10-20T18:39:10.013Z,4.47
2022-10-20T18:41:38.030Z,3.65
2022-10-20T18:44:10.029Z,3.53
2022-10-20T18:46:36.701Z,3.67
2022-10-20T18:49:04.082Z,3.63
2022-10-20T18:51:31.256Z,3.63
2022-10-20T18:54:00.590Z,4.15
2022-10-20T18:56:27.622Z,3.77
2022-10-20T18:58:54.666Z,3.38
2022-10-20T19:01:29.128Z,3.53
2022-10-20T19:03:56.308Z,4.32
2022-10-20T19:06:24.236Z,3.53
2022-10-20T19:08:54.411Z,3.42
2022-10-20T19:13:47.235Z,3.67
2022-10-20T19:16:15.955Z,3.90
2022-10-20T19:18:46.052Z,3.90
2022-10-20T19:21:12.639Z,3.83
2022-10-20T19:23:39.963Z,3.70
2022-10-20T19:26:08.235Z,4.10
2022-10-20T19:28:35.695Z,4.20
2022-10-20T19:31:01.981Z,4.15
2022-10-20T19:33:28.971Z,4.40
2022-10-20T19:35:55.228Z,4.15
2022-10-20T19:38:21.528Z,4.38
2022-10-20T19:40:47.794Z,4.40
2022-10-20T19:43:14.099Z,4.65
2022-10-20T19:45:40.444Z,4.68
2022-10-20T19:48:06.694Z,4.20
2022-10-20T19:50:33.817Z,4.55
2022-10-20T19:53:00.064Z,4.65
2022-10-20T19:55:26.364Z,4.47
2022-10-20T19:57:53.455Z,4.10
2022-10-20T20:00:19.946Z,4.82
2022-10-20T20:02:46.169Z,4.60
2022-10-20T20:05:12.402Z,4.63
2022-10-20T20:07:41.327Z,4.13
2022-10-20T20:10:07.620Z,4.53
2022-10-20T20:12:33.870Z,4.47
2022-10-20T20:15:00.191Z,4.50
2022-10-20T20:17:26.437Z,4.88
2022-10-20T20:19:52.739Z,4.22
2022-10-20T20:22:18.958Z,4.68
2022-10-20T20:24:45.211Z,4.13
2022-10-20T20:27:11.677Z,4.57
2022-10-20T20:29:37.984Z,4.13
2022-10-20T20:32:04.308Z,4.20
2022-10-20T20:34:30.679Z,4.25
2022-10-20T20:36:57.000Z,3.97
2022-10-20T20:39:24.051Z,4.20
2022-10-20T20:41:50.347Z,3.88
2022-10-20T20:44:16.695Z,4.20
2022-10-20T20:46:42.952Z,3.95
2022-10-20T20:49:09.198Z,4.28
2022-10-20T20:51:35.465Z,4.13
2022-10-20T20:54:02.133Z,4.22
2022-10-20T20:56:28.416Z,3.97
2022-10-20T20:58:55.682Z,3.88
2022-10-20T21:01:23.898Z,3.90
2022-10-20T21:03:57.176Z,3.90
2022-10-20T21:06:28.921Z,4.30
2022-10-20T21:08:59.866Z,4.57
2022-10-20T21:11:26.946Z,4.03
2022-10-20T21:13:54.791Z,3.50
2022-10-20T21:16:23.686Z,4.05
2022-10-20T21:18:52.350Z,4.20
2022-10-20T21:21:26.450Z,3.92
2022-10-20T21:23:52.727Z,4.22
2022-10-20T21:26:21.108Z,4.07
2022-10-20T21:28:50.455Z,3.83
2022-10-20T21:31:18.399Z,3.97
2022-10-20T21:33:45.372Z,4.03
2022-10-20T21:36:13.172Z,3.90
2022-10-20T21:38:40.514Z,4.15
2022-10-20T21:41:08.321Z,3.72
2022-10-20T21:43:35.326Z,4.03
2022-10-20T21:46:14.953Z,3.67
2022-10-20T21:48:42.091Z,3.53
2022-10-20T21:51:12.522Z,3.25
2022-10-20T21:53:39.101Z,3.85
2022-10-20T21:56:06.008Z,3.65
2022-10-20T21:58:32.581Z,3.75
2022-10-20T22:00:58.922Z,3.85
2022-10-20T22:03:25.479Z,3.72
2022-10-20T22:05:51.842Z,4.10
2022-10-20T22:08:18.326Z,3.25
2022-10-20T22:10:44.661Z,3.63
2022-10-20T22:13:10.939Z,3.58
2022-10-20T22:15:37.931Z,3.85
2022-10-20T22:18:04.199Z,4.10
2022-10-20T22:20:30.426Z,3.78
2022-10-20T22:22:56.859Z,3.38
2022-10-20T22:25:23.321Z,3.85
2022-10-20T22:27:49.547Z,4.30
2022-10-20T22:30:15.800Z,3.63
2022-10-20T22:32:42.096Z,3.88
2022-10-20T22:35:08.420Z,3.90
2022-10-20T22:37:34.682Z,4.00
2022-10-20T22:40:00.937Z,3.50
2022-10-20T22:42:27.180Z,3.50
2022-10-20T22:44:53.434Z,4.00
2022-10-20T22:47:19.673Z,3.20
2022-10-20T22:49:45.957Z,3.38
2022-10-20T22:52:12.190Z,3.97
2022-10-20T22:54:38.437Z,3.47
2022-10-20T22:57:04.680Z,3.85
2022-10-20T22:59:30.958Z,3.70
2022-10-20T23:01:57.208Z,3.25
2022-10-20T23:04:23.523Z,3.42
2022-10-20T23:06:49.771Z,3.28
2022-10-20T23:09:16.100Z,3.17
2022-10-20T23:11:42.365Z,3.42
2022-10-20T23:14:08.656Z,3.20
2022-10-20T23:16:34.869Z,3.67
2022-10-20T23:19:01.092Z,3.40
2022-10-20T23:21:27.429Z,3.30
2022-10-20T23:23:53.723Z,3.10
2022-10-20T23:26:19.964Z,3.22
2022-10-20T23:28:46.224Z,3.40
2022-10-20T23:31:16.331Z,3.28
2022-10-20T23:33:43.599Z,4.10
2022-10-20T23:36:10.378Z,3.10
2022-10-20T23:38:36.690Z,3.13
2022-10-20T23:41:03.405Z,3.13
2022-10-20T23:43:29.672Z,3.55
2022-10-20T23:45:55.997Z,3.30
2022-10-20T23:48:22.236Z,3.53
2022-10-20T23:50:48.627Z,3.25
2022-10-20T23:53:15.154Z,3.22
2022-10-20T23:55:41.954Z,3.22
2022-10-20T23:58:08.378Z,3.00
